Sea Thames — V2BV1 — position and weather

sailwx.info

Track history (hours):
 
Tides and Currents Weather Stations Pressure Air Temp Water Temp Dewpoint Dewpoint Depression Visibility Wind Speed Wind Dir Waves Ship Positions

Sea Thames

Last reported at 2014-Nov-19 19:33 UTC. Time now 2014-Nov-23 04:52 UTC.
Position N 54°26' E 008°36'.

Length 87 m; draft 3.3 m.

Type: Cargo ship. MMSI: 304933000.

Date/timePositionNaut miles runAvg speedWind from/ knotsBaromVisibWave heightAir tempDewpointWater temp
2014-Nov-19 19:33N 54°26' E 008°36'9 9.3
2014-Nov-19 18:33N 54°19' E 008°26'9 8.9
2014-Nov-19 17:33N 54°11' E 008°19'10 9.7
2014-Nov-19 16:33N 54°02' E 008°15'8 7.7
2014-Nov-19 15:33N 53°59' E 008°03'6 6.3
2014-Nov-19 14:33N 53°57' E 007°52'59 5.8
2014-Nov-19 04:26N 53°43' E 006°15'6 7.0
2014-Nov-19 03:32N 53°41' E 006°05'7 7.0
2014-Nov-19 02:33N 53°39' E 005°54'7 7.1
2014-Nov-19 01:33N 53°37' E 005°43'7 6.7
2014-Nov-19 00:33N 53°35' E 005°32'6 6.2
2014-Nov-18 23:33N 53°33' E 005°22'6 6.1
2014-Nov-18 22:33N 53°31' E 005°12'6 6.2
2014-Nov-18 21:33N 53°29' E 005°03'6 6.0
2014-Nov-18 20:33N 53°26' E 004°54'78 7.8
2014-Nov-18 10:32N 52°17' E 003°52'1110.9
2014-Nov-18 09:32N 52°06' E 003°56'1010.3
2014-Nov-18 08:33N 51°58' E 004°06'4 3.9
2014-Nov-18 07:32N 51°56' E 004°11'0 0.0
2014-Nov-18 06:29N 51°56' E 004°11'0 0.0
2014-Nov-18 05:29N 51°56' E 004°11'0 0.0
2014-Nov-18 04:32N 51°56' E 004°11'0 0.0
2014-Nov-18 03:32N 51°56' E 004°11'0 0.0
2014-Nov-18 02:32N 51°56' E 004°11'0 0.0
2014-Nov-18 01:32N 51°56' E 004°11'0 0.0
2014-Nov-18 00:32N 51°56' E 004°11'0 0.0
2014-Nov-17 23:29N 51°56' E 004°11'0 0.0
2014-Nov-17 22:32N 51°56' E 004°11'0 0.0
2014-Nov-17 21:32N 51°56' E 004°11'0 0.0
2014-Nov-17 20:29N 51°56' E 004°11'0 0.0
2014-Nov-17 19:32N 51°56' E 004°11'0 0.0
2014-Nov-17 18:32N 51°56' E 004°11'0 0.0
2014-Nov-17 17:29N 51°56' E 004°11'0 0.0
2014-Nov-17 16:29N 51°56' E 004°11'0 0.0
2014-Nov-17 15:32N 51°56' E 004°11'0 0.0
2014-Nov-17 14:32N 51°56' E 004°11'0 0.0
2014-Nov-17 13:32N 51°56' E 004°11'0 0.0
2014-Nov-17 12:32N 51°56' E 004°11'0 0.0
2014-Nov-17 11:32N 51°56' E 004°11'0 0.0
2014-Nov-17 10:32N 51°56' E 004°11'0 0.0
2014-Nov-17 09:32N 51°56' E 004°11'0 0.0
2014-Nov-17 08:26N 51°56' E 004°11'0 0.0
2014-Nov-17 07:23N 51°56' E 004°11'0 0.0
2014-Nov-17 06:29N 51°56' E 004°11'0 0.0
2014-Nov-17 05:29N 51°56' E 004°11'0 0.0
2014-Nov-17 04:32N 51°56' E 004°11'0 0.0
2014-Nov-17 03:32N 51°56' E 004°11'0 0.0
2014-Nov-17 02:32N 51°56' E 004°11'0 0.0
2014-Nov-17 01:32N 51°56' E 004°11'0 0.0
2014-Nov-17 00:29N 51°56' E 004°11'0 0.0
2014-Nov-16 23:32N 51°56' E 004°11'0 0.0
2014-Nov-16 22:32N 51°56' E 004°11'0 0.0
2014-Nov-16 21:23N 51°56' E 004°11'0 0.0
2014-Nov-16 20:29N 51°56' E 004°11'0 0.0
2014-Nov-16 19:32N 51°56' E 004°11'0 0.0
2014-Nov-16 18:29N 51°56' E 004°11'0 0.0
2014-Nov-16 17:32N 51°56' E 004°11'0 0.0
2014-Nov-16 16:33N 51°56' E 004°11'5 4.8
2014-Nov-16 15:33N 51°59' E 004°05'8 7.6
2014-Nov-16 14:33N 51°59' E 003°52'61 8.3
2014-Nov-16 07:16N 51°35' E 002°23'6 9.0
2014-Nov-16 06:33N 51°30' E 002°16'9 8.7
2014-Nov-16 05:32N 51°22' E 002°10'9 8.5
2014-Nov-16 04:31N 51°14' E 002°05'9 8.2
2014-Nov-16 03:28N 51°09' E 001°54'7 8.1
2014-Nov-16 02:33N 51°05' E 001°44'9 7.9
2014-Nov-16 01:27N 50°58' E 001°35'  
2014-Nov-11 16:23N 50°34' E 000°09'7 8.5
2014-Nov-11 15:33N 50°36' E 000°20'8 7.9
2014-Nov-11 14:34N 50°38' E 000°32'7 7.0
2014-Nov-11 13:34N 50°42' E 000°41'7 6.6
2014-Nov-11 12:33N 50°46' E 000°50'16 6.9
2014-Nov-11 10:17N 50°55' E 001°09'6 8.1
2014-Nov-11 09:33N 50°59' E 001°17'9 9.2
2014-Nov-11 08:33N 51°05' E 001°28'9 9.1
2014-Nov-11 07:34N 51°11' E 001°39'8 8.0
2014-Nov-11 06:33N 51°17' E 001°47'7 7.2
2014-Nov-11 05:34N 51°24' E 001°52'13 6.3
2014-Nov-11 03:28N 51°34' E 002°06'64 7.2
2014-Nov-10 18:30N 52°04' E 003°37'8 7.9
2014-Nov-10 17:33N 52°04' E 003°50'7 7.6
2014-Nov-10 16:34N 52°01' E 004°01'8 7.7
2014-Nov-10 15:33N 51°57' E 004°11'6 5.4
2014-Nov-10 14:31N 51°54' E 004°19'0 0.0
2014-Nov-10 13:31N 51°54' E 004°19'0 0.0
2014-Nov-10 12:31N 51°54' E 004°19'0 0.0
2014-Nov-10 11:31N 51°54' E 004°19'0 0.0
2014-Nov-10 10:31N 51°54' E 004°19'0 0.0
2014-Nov-10 09:31N 51°54' E 004°19'0 0.0
2014-Nov-10 08:25N 51°54' E 004°19'0 0.0
2014-Nov-10 07:31N 51°54' E 004°19'0 0.0
2014-Nov-10 06:31N 51°54' E 004°19'0 0.0
2014-Nov-10 05:31N 51°54' E 004°19'0 0.0
2014-Nov-10 04:31N 51°54' E 004°19'0 0.0
2014-Nov-10 03:28N 51°54' E 004°19'0 0.0
2014-Nov-10 02:31N 51°54' E 004°19'0 0.0
2014-Nov-10 01:31N 51°54' E 004°19'0 0.0
2014-Nov-10 00:31N 51°54' E 004°19'0 0.0
2014-Nov-09 23:28N 51°54' E 004°19'0 0.0
2014-Nov-09 22:31N 51°54' E 004°19'0 0.0
2014-Nov-09 21:31N 51°54' E 004°19'0 0.0
2014-Nov-09 20:31N 51°54' E 004°19'  
Track history (hours):
 
Tides and Currents Weather Stations Pressure Air Temp Water Temp Dewpoint Dewpoint Depression Visibility Wind Speed Wind Dir Waves Ship Positions

Sea Thames

Last reported at 2014-Nov-19 19:33 UTC. Time now 2014-Nov-23 04:52 UTC.
Position N 54°26' E 008°36'.

Length 87 m; draft 3.3 m.

Type: Cargo ship. MMSI: 304933000.

Date/timePositionNaut miles runAvg speedWind from/ knotsBaromVisibWave heightAir tempDewpointWater temp
2014-Nov-19 19:33N 54°26' E 008°36'9 9.3
2014-Nov-19 18:33N 54°19' E 008°26'9 8.9
2014-Nov-19 17:33N 54°11' E 008°19'10 9.7
2014-Nov-19 16:33N 54°02' E 008°15'8 7.7
2014-Nov-19 15:33N 53°59' E 008°03'6 6.3
2014-Nov-19 14:33N 53°57' E 007°52'59 5.8
2014-Nov-19 04:26N 53°43' E 006°15'6 7.0
2014-Nov-19 03:32N 53°41' E 006°05'7 7.0
2014-Nov-19 02:33N 53°39' E 005°54'7 7.1
2014-Nov-19 01:33N 53°37' E 005°43'7 6.7
2014-Nov-19 00:33N 53°35' E 005°32'6 6.2
2014-Nov-18 23:33N 53°33' E 005°22'6 6.1
2014-Nov-18 22:33N 53°31' E 005°12'6 6.2
2014-Nov-18 21:33N 53°29' E 005°03'6 6.0
2014-Nov-18 20:33N 53°26' E 004°54'78 7.8
2014-Nov-18 10:32N 52°17' E 003°52'1110.9
2014-Nov-18 09:32N 52°06' E 003°56'1010.3
2014-Nov-18 08:33N 51°58' E 004°06'4 3.9
2014-Nov-18 07:32N 51°56' E 004°11'0 0.0
2014-Nov-18 06:29N 51°56' E 004°11'0 0.0
2014-Nov-18 05:29N 51°56' E 004°11'0 0.0
2014-Nov-18 04:32N 51°56' E 004°11'0 0.0
2014-Nov-18 03:32N 51°56' E 004°11'0 0.0
2014-Nov-18 02:32N 51°56' E 004°11'0 0.0
2014-Nov-18 01:32N 51°56' E 004°11'0 0.0
2014-Nov-18 00:32N 51°56' E 004°11'0 0.0
2014-Nov-17 23:29N 51°56' E 004°11'0 0.0
2014-Nov-17 22:32N 51°56' E 004°11'0 0.0
2014-Nov-17 21:32N 51°56' E 004°11'0 0.0
2014-Nov-17 20:29N 51°56' E 004°11'0 0.0
2014-Nov-17 19:32N 51°56' E 004°11'0 0.0
2014-Nov-17 18:32N 51°56' E 004°11'0 0.0
2014-Nov-17 17:29N 51°56' E 004°11'0 0.0
2014-Nov-17 16:29N 51°56' E 004°11'0 0.0
2014-Nov-17 15:32N 51°56' E 004°11'0 0.0
2014-Nov-17 14:32N 51°56' E 004°11'0 0.0
2014-Nov-17 13:32N 51°56' E 004°11'0 0.0
2014-Nov-17 12:32N 51°56' E 004°11'0 0.0
2014-Nov-17 11:32N 51°56' E 004°11'0 0.0
2014-Nov-17 10:32N 51°56' E 004°11'0 0.0
2014-Nov-17 09:32N 51°56' E 004°11'0 0.0
2014-Nov-17 08:26N 51°56' E 004°11'0 0.0
2014-Nov-17 07:23N 51°56' E 004°11'0 0.0
2014-Nov-17 06:29N 51°56' E 004°11'0 0.0
2014-Nov-17 05:29N 51°56' E 004°11'0 0.0
2014-Nov-17 04:32N 51°56' E 004°11'0 0.0
2014-Nov-17 03:32N 51°56' E 004°11'0 0.0
2014-Nov-17 02:32N 51°56' E 004°11'0 0.0
2014-Nov-17 01:32N 51°56' E 004°11'0 0.0
2014-Nov-17 00:29N 51°56' E 004°11'0 0.0
2014-Nov-16 23:32N 51°56' E 004°11'0 0.0
2014-Nov-16 22:32N 51°56' E 004°11'0 0.0
2014-Nov-16 21:23N 51°56' E 004°11'0 0.0
2014-Nov-16 20:29N 51°56' E 004°11'0 0.0
2014-Nov-16 19:32N 51°56' E 004°11'0 0.0
2014-Nov-16 18:29N 51°56' E 004°11'0 0.0
2014-Nov-16 17:32N 51°56' E 004°11'0 0.0
2014-Nov-16 16:33N 51°56' E 004°11'5 4.8
2014-Nov-16 15:33N 51°59' E 004°05'8 7.6
2014-Nov-16 14:33N 51°59' E 003°52'61 8.3
2014-Nov-16 07:16N 51°35' E 002°23'6 9.0
2014-Nov-16 06:33N 51°30' E 002°16'9 8.7
2014-Nov-16 05:32N 51°22' E 002°10'9 8.5
2014-Nov-16 04:31N 51°14' E 002°05'9 8.2
2014-Nov-16 03:28N 51°09' E 001°54'7 8.1
2014-Nov-16 02:33N 51°05' E 001°44'9 7.9
2014-Nov-16 01:27N 50°58' E 001°35'  
2014-Nov-11 16:23N 50°34' E 000°09'7 8.5
2014-Nov-11 15:33N 50°36' E 000°20'8 7.9
2014-Nov-11 14:34N 50°38' E 000°32'7 7.0
2014-Nov-11 13:34N 50°42' E 000°41'7 6.6
2014-Nov-11 12:33N 50°46' E 000°50'16 6.9
2014-Nov-11 10:17N 50°55' E 001°09'6 8.1
2014-Nov-11 09:33N 50°59' E 001°17'9 9.2
2014-Nov-11 08:33N 51°05' E 001°28'9 9.1
2014-Nov-11 07:34N 51°11' E 001°39'8 8.0
2014-Nov-11 06:33N 51°17' E 001°47'7 7.2
2014-Nov-11 05:34N 51°24' E 001°52'13 6.3
2014-Nov-11 03:28N 51°34' E 002°06'64 7.2
2014-Nov-10 18:30N 52°04' E 003°37'8 7.9
2014-Nov-10 17:33N 52°04' E 003°50'7 7.6
2014-Nov-10 16:34N 52°01' E 004°01'8 7.7
2014-Nov-10 15:33N 51°57' E 004°11'6 5.4
2014-Nov-10 14:31N 51°54' E 004°19'0 0.0
2014-Nov-10 13:31N 51°54' E 004°19'0 0.0
2014-Nov-10 12:31N 51°54' E 004°19'0 0.0
2014-Nov-10 11:31N 51°54' E 004°19'0 0.0
2014-Nov-10 10:31N 51°54' E 004°19'0 0.0
2014-Nov-10 09:31N 51°54' E 004°19'0 0.0
2014-Nov-10 08:25N 51°54' E 004°19'0 0.0
2014-Nov-10 07:31N 51°54' E 004°19'0 0.0
2014-Nov-10 06:31N 51°54' E 004°19'0 0.0
2014-Nov-10 05:31N 51°54' E 004°19'0 0.0
2014-Nov-10 04:31N 51°54' E 004°19'0 0.0
2014-Nov-10 03:28N 51°54' E 004°19'0 0.0
2014-Nov-10 02:31N 51°54' E 004°19'0 0.0
2014-Nov-10 01:31N 51°54' E 004°19'0 0.0
2014-Nov-10 00:31N 51°54' E 004°19'0 0.0
2014-Nov-09 23:28N 51°54' E 004°19'0 0.0
2014-Nov-09 22:31N 51°54' E 004°19'0 0.0
2014-Nov-09 21:31N 51°54' E 004°19'0 0.0
2014-Nov-09 20:31N 51°54' E 004°19'  

Dump ship's entire track history